sensor_id;sensor_type;location;lat;lon;timestamp;P1;durP1;ratioP1;P2;durP2;ratioP2
76403;SDS011;65232;48.358;2.122;2024-02-04T00:00:05;2.90;;;2.10;;
76403;SDS011;65232;48.358;2.122;2024-02-04T00:00:36;5.53;;;2.20;;
76403;SDS011;65232;48.358;2.122;2024-02-04T00:01:02;2.72;;;2.08;;
76403;SDS011;65232;48.358;2.122;2024-02-04T00:01:27;3.55;;;2.25;;
76403;SDS011;65232;48.358;2.122;2024-02-04T00:01:52;3.30;;;2.13;;
76403;SDS011;65232;48.358;2.122;2024-02-04T00:02:18;3.63;;;2.00;;
76403;SDS011;65232;48.358;2.122;2024-02-04T00:02:45;4.65;;;2.13;;
76403;SDS011;65232;48.358;2.122;2024-02-04T00:03:11;4.50;;;2.28;;
76403;SDS011;65232;48.358;2.122;2024-02-04T00:03:36;4.28;;;2.20;;
76403;SDS011;65232;48.358;2.122;2024-02-04T00:04:01;3.72;;;2.22;;
76403;SDS011;65232;48.358;2.122;2024-02-04T00:04:27;4.43;;;1.98;;
76403;SDS011;65232;48.358;2.122;2024-02-04T00:04:52;4.05;;;1.88;;
76403;SDS011;65232;48.358;2.122;2024-02-04T00:05:18;3.22;;;2.10;;
76403;SDS011;65232;48.358;2.122;2024-02-04T00:05:43;3.63;;;2.13;;
76403;SDS011;65232;48.358;2.122;2024-02-04T00:06:08;5.05;;;2.00;;
76403;SDS011;65232;48.358;2.122;2024-02-04T00:06:34;3.70;;;2.10;;
76403;SDS011;65232;48.358;2.122;2024-02-04T00:06:59;4.95;;;2.50;;
76403;SDS011;65232;48.358;2.122;2024-02-04T00:07:25;2.55;;;1.70;;
76403;SDS011;65232;48.358;2.122;2024-02-04T00:07:50;6.10;;;2.28;;
76403;SDS011;65232;48.358;2.122;2024-02-04T00:08:16;4.03;;;1.85;;
76403;SDS011;65232;48.358;2.122;2024-02-04T00:08:42;2.30;;;2.00;;
76403;SDS011;65232;48.358;2.122;2024-02-04T00:09:07;3.72;;;2.10;;
76403;SDS011;65232;48.358;2.122;2024-02-04T00:09:33;4.22;;;2.10;;
76403;SDS011;65232;48.358;2.122;2024-02-04T00:09:59;3.13;;;2.00;;
76403;SDS011;65232;48.358;2.122;2024-02-04T00:10:24;4.22;;;2.20;;
76403;SDS011;65232;48.358;2.122;2024-02-04T00:10:51;4.13;;;2.38;;
76403;SDS011;65232;48.358;2.122;2024-02-04T00:11:17;5.28;;;2.28;;
76403;SDS011;65232;48.358;2.122;2024-02-04T00:11:42;5.07;;;2.00;;
76403;SDS011;65232;48.358;2.122;2024-02-04T00:12:08;3.67;;;2.03;;
76403;SDS011;65232;48.358;2.122;2024-02-04T00:12:33;4.57;;;2.20;;
76403;SDS011;65232;48.358;2.122;2024-02-04T00:12:58;4.22;;;1.90;;
76403;SDS011;65232;48.358;2.122;2024-02-04T00:13:24;5.18;;;2.33;;
76403;SDS011;65232;48.358;2.122;2024-02-04T00:13:50;4.63;;;2.15;;
76403;SDS011;65232;48.358;2.122;2024-02-04T00:14:15;4.45;;;1.95;;
76403;SDS011;65232;48.358;2.122;2024-02-04T00:14:41;5.85;;;2.28;;
76403;SDS011;65232;48.358;2.122;2024-02-04T00:15:06;2.92;;;1.70;;
76403;SDS011;65232;48.358;2.122;2024-02-04T00:15:33;3.53;;;2.10;;
76403;SDS011;65232;48.358;2.122;2024-02-04T00:15:58;3.10;;;1.90;;
76403;SDS011;65232;48.358;2.122;2024-02-04T00:16:23;3.55;;;2.30;;
76403;SDS011;65232;48.358;2.122;2024-02-04T00:16:49;4.25;;;1.95;;
76403;SDS011;65232;48.358;2.122;2024-02-04T00:17:15;3.38;;;2.00;;
76403;SDS011;65232;48.358;2.122;2024-02-04T00:17:41;4.72;;;1.90;;
76403;SDS011;65232;48.358;2.122;2024-02-04T00:18:06;5.07;;;1.98;;
76403;SDS011;65232;48.358;2.122;2024-02-04T00:18:32;3.67;;;2.05;;
76403;SDS011;65232;48.358;2.122;2024-02-04T00:18:57;2.97;;;1.80;;
76403;SDS011;65232;48.358;2.122;2024-02-04T00:19:22;5.25;;;2.28;;
76403;SDS011;65232;48.358;2.122;2024-02-04T00:19:48;4.03;;;2.40;;
76403;SDS011;65232;48.358;2.122;2024-02-04T00:20:13;4.13;;;2.00;;
76403;SDS011;65232;48.358;2.122;2024-02-04T00:20:39;3.70;;;1.98;;
76403;SDS011;65232;48.358;2.122;2024-02-04T00:21:04;3.72;;;2.03;;
76403;SDS011;65232;48.358;2.122;2024-02-04T00:21:30;2.78;;;2.05;;
76403;SDS011;65232;48.358;2.122;2024-02-04T00:21:55;5.43;;;2.55;;
76403;SDS011;65232;48.358;2.122;2024-02-04T00:22:20;4.55;;;2.15;;
76403;SDS011;65232;48.358;2.122;2024-02-04T00:22:46;4.28;;;2.22;;
76403;SDS011;65232;48.358;2.122;2024-02-04T00:23:11;4.78;;;2.22;;
76403;SDS011;65232;48.358;2.122;2024-02-04T00:23:36;3.78;;;2.70;;
76403;SDS011;65232;48.358;2.122;2024-02-04T00:24:02;3.88;;;2.30;;
76403;SDS011;65232;48.358;2.122;2024-02-04T00:24:27;4.07;;;2.17;;
76403;SDS011;65232;48.358;2.122;2024-02-04T00:24:53;2.33;;;1.90;;
76403;SDS011;65232;48.358;2.122;2024-02-04T00:25:18;3.30;;;2.38;;
76403;SDS011;65232;48.358;2.122;2024-02-04T00:25:44;2.90;;;1.98;;
76403;SDS011;65232;48.358;2.122;2024-02-04T00:26:09;4.43;;;2.28;;
76403;SDS011;65232;48.358;2.122;2024-02-04T00:26:35;4.13;;;2.38;;
76403;SDS011;65232;48.358;2.122;2024-02-04T00:27:00;4.43;;;2.03;;
76403;SDS011;65232;48.358;2.122;2024-02-04T00:27:25;4.85;;;2.47;;
76403;SDS011;65232;48.358;2.122;2024-02-04T00:27:51;2.88;;;2.08;;
76403;SDS011;65232;48.358;2.122;2024-02-04T00:28:16;6.45;;;2.28;;
76403;SDS011;65232;48.358;2.122;2024-02-04T00:28:43;6.47;;;2.38;;
76403;SDS011;65232;48.358;2.122;2024-02-04T00:29:09;5.13;;;2.47;;
76403;SDS011;65232;48.358;2.122;2024-02-04T00:29:34;4.63;;;2.13;;
76403;SDS011;65232;48.358;2.122;2024-02-04T00:30:00;5.07;;;2.03;;
76403;SDS011;65232;48.358;2.122;2024-02-04T00:30:25;5.30;;;2.20;;
76403;SDS011;65232;48.358;2.122;2024-02-04T00:30:51;3.92;;;2.20;;
76403;SDS011;65232;48.358;2.122;2024-02-04T00:31:20;4.32;;;2.88;;
76403;SDS011;65232;48.358;2.122;2024-02-04T00:31:45;3.95;;;2.17;;
76403;SDS011;65232;48.358;2.122;2024-02-04T00:32:11;3.72;;;2.28;;
76403;SDS011;65232;48.358;2.122;2024-02-04T00:32:36;3.90;;;2.20;;
76403;SDS011;65232;48.358;2.122;2024-02-04T00:33:02;3.67;;;2.10;;
76403;SDS011;65232;48.358;2.122;2024-02-04T00:33:28;3.67;;;2.35;;
76403;SDS011;65232;48.358;2.122;2024-02-04T00:33:54;3.22;;;2.40;;
76403;SDS011;65232;48.358;2.122;2024-02-04T00:34:19;3.85;;;2.10;;
76403;SDS011;65232;48.358;2.122;2024-02-04T00:34:44;4.72;;;2.22;;
76403;SDS011;65232;48.358;2.122;2024-02-04T00:35:10;3.95;;;2.38;;
76403;SDS011;65232;48.358;2.122;2024-02-04T00:35:35;2.83;;;2.10;;
76403;SDS011;65232;48.358;2.122;2024-02-04T00:36:00;5.05;;;2.03;;
76403;SDS011;65232;48.358;2.122;2024-02-04T00:36:26;4.47;;;2.03;;
76403;SDS011;65232;48.358;2.122;2024-02-04T00:36:51;3.22;;;2.00;;
76403;SDS011;65232;48.358;2.122;2024-02-04T00:37:17;5.63;;;2.30;;
76403;SDS011;65232;48.358;2.122;2024-02-04T00:37:42;5.05;;;3.20;;
76403;SDS011;65232;48.358;2.122;2024-02-04T00:38:08;5.90;;;3.35;;
76403;SDS011;65232;48.358;2.122;2024-02-04T00:38:34;6.20;;;3.28;;
76403;SDS011;65232;48.358;2.122;2024-02-04T00:38:59;6.60;;;2.88;;
76403;SDS011;65232;48.358;2.122;2024-02-04T00:39:24;4.85;;;2.63;;
76403;SDS011;65232;48.358;2.122;2024-02-04T00:39:50;5.18;;;3.05;;
76403;SDS011;65232;48.358;2.122;2024-02-04T00:40:15;4.55;;;2.53;;
76403;SDS011;65232;48.358;2.122;2024-02-04T00:40:41;3.75;;;2.80;;
76403;SDS011;65232;48.358;2.122;2024-02-04T00:41:06;4.32;;;2.75;;
76403;SDS011;65232;48.358;2.122;2024-02-04T00:41:31;4.95;;;2.90;;
76403;SDS011;65232;48.358;2.122;2024-02-04T00:41:57;4.72;;;2.40;;
76403;SDS011;65232;48.358;2.122;2024-02-04T00:42:22;4.75;;;2.80;;
76403;SDS011;65232;48.358;2.122;2024-02-04T00:42:48;4.75;;;2.70;;
76403;SDS011;65232;48.358;2.122;2024-02-04T00:43:13;4.55;;;2.55;;
76403;SDS011;65232;48.358;2.122;2024-02-04T00:43:38;3.35;;;2.60;;
76403;SDS011;65232;48.358;2.122;2024-02-04T00:44:04;4.25;;;2.42;;
76403;SDS011;65232;48.358;2.122;2024-02-04T00:44:29;5.72;;;2.42;;
76403;SDS011;65232;48.358;2.122;2024-02-04T00:44:55;3.28;;;2.47;;
76403;SDS011;65232;48.358;2.122;2024-02-04T00:45:20;4.40;;;2.60;;
76403;SDS011;65232;48.358;2.122;2024-02-04T00:45:46;5.78;;;2.67;;
76403;SDS011;65232;48.358;2.122;2024-02-04T00:46:11;3.88;;;2.30;;
76403;SDS011;65232;48.358;2.122;2024-02-04T00:46:37;4.10;;;2.38;;
76403;SDS011;65232;48.358;2.122;2024-02-04T00:47:02;5.93;;;2.47;;
76403;SDS011;65232;48.358;2.122;2024-02-04T00:47:28;4.43;;;2.58;;
76403;SDS011;65232;48.358;2.122;2024-02-04T00:47:53;5.53;;;2.70;;
76403;SDS011;65232;48.358;2.122;2024-02-04T00:48:19;4.05;;;2.45;;
76403;SDS011;65232;48.358;2.122;2024-02-04T00:48:44;4.00;;;2.60;;
76403;SDS011;65232;48.358;2.122;2024-02-04T00:49:09;5.90;;;2.80;;
76403;SDS011;65232;48.358;2.122;2024-02-04T00:49:35;4.50;;;2.50;;
76403;SDS011;65232;48.358;2.122;2024-02-04T00:50:00;5.60;;;2.78;;
76403;SDS011;65232;48.358;2.122;2024-02-04T00:50:28;6.03;;;2.92;;
76403;SDS011;65232;48.358;2.122;2024-02-04T00:50:53;4.70;;;2.70;;
76403;SDS011;65232;48.358;2.122;2024-02-04T00:51:19;4.22;;;2.80;;
76403;SDS011;65232;48.358;2.122;2024-02-04T00:51:45;3.85;;;2.40;;
76403;SDS011;65232;48.358;2.122;2024-02-04T00:52:11;4.30;;;2.40;;
76403;SDS011;65232;48.358;2.122;2024-02-04T00:52:38;4.70;;;2.55;;
76403;SDS011;65232;48.358;2.122;2024-02-04T00:53:04;6.03;;;2.83;;
76403;SDS011;65232;48.358;2.122;2024-02-04T00:53:29;5.90;;;2.63;;
76403;SDS011;65232;48.358;2.122;2024-02-04T00:53:59;5.20;;;1.90;;
76403;SDS011;65232;48.358;2.122;2024-02-04T00:54:24;3.72;;;2.50;;
76403;SDS011;65232;48.358;2.122;2024-02-04T00:54:49;4.95;;;2.25;;
76403;SDS011;65232;48.358;2.122;2024-02-04T00:55:15;4.82;;;2.35;;
76403;SDS011;65232;48.358;2.122;2024-02-04T00:55:40;4.45;;;2.60;;
76403;SDS011;65232;48.358;2.122;2024-02-04T00:56:06;5.22;;;2.35;;
76403;SDS011;65232;48.358;2.122;2024-02-04T00:56:31;3.28;;;2.40;;
76403;SDS011;65232;48.358;2.122;2024-02-04T00:56:57;4.13;;;2.38;;
76403;SDS011;65232;48.358;2.122;2024-02-04T00:57:22;4.13;;;2.30;;
76403;SDS011;65232;48.358;2.122;2024-02-04T00:57:48;3.85;;;2.13;;
76403;SDS011;65232;48.358;2.122;2024-02-04T00:58:13;4.00;;;2.00;;
76403;SDS011;65232;48.358;2.122;2024-02-04T00:58:39;3.65;;;2.50;;
76403;SDS011;65232;48.358;2.122;2024-02-04T00:59:04;3.35;;;2.33;;
76403;SDS011;65232;48.358;2.122;2024-02-04T00:59:30;5.40;;;2.60;;
76403;SDS011;65232;48.358;2.122;2024-02-04T00:59:55;5.07;;;2.35;;
76403;SDS011;65232;48.358;2.122;2024-02-04T01:00:20;5.95;;;2.20;;
76403;SDS011;65232;48.358;2.122;2024-02-04T01:00:46;4.15;;;2.33;;
76403;SDS011;65232;48.358;2.122;2024-02-04T01:01:11;4.88;;;2.33;;
76403;SDS011;65232;48.358;2.122;2024-02-04T01:01:37;6.07;;;2.80;;
76403;SDS011;65232;48.358;2.122;2024-02-04T01:02:03;3.38;;;2.20;;
76403;SDS011;65232;48.358;2.122;2024-02-04T01:02:28;5.45;;;2.30;;
76403;SDS011;65232;48.358;2.122;2024-02-04T01:02:54;4.18;;;2.05;;
76403;SDS011;65232;48.358;2.122;2024-02-04T01:03:19;5.13;;;2.30;;
76403;SDS011;65232;48.358;2.122;2024-02-04T01:03:45;3.53;;;2.45;;
76403;SDS011;65232;48.358;2.122;2024-02-04T01:04:11;4.82;;;2.10;;
76403;SDS011;65232;48.358;2.122;2024-02-04T01:04:36;3.78;;;2.22;;
76403;SDS011;65232;48.358;2.122;2024-02-04T01:05:02;3.85;;;1.90;;
76403;SDS011;65232;48.358;2.122;2024-02-04T01:05:27;2.97;;;2.00;;
76403;SDS011;65232;48.358;2.122;2024-02-04T01:05:53;4.80;;;2.30;;
76403;SDS011;65232;48.358;2.122;2024-02-04T01:06:18;6.72;;;2.65;;
76403;SDS011;65232;48.358;2.122;2024-02-04T01:06:43;7.32;;;2.30;;
76403;SDS011;65232;48.358;2.122;2024-02-04T01:07:09;4.32;;;2.20;;
76403;SDS011;65232;48.358;2.122;2024-02-04T01:07:35;2.80;;;2.10;;
76403;SDS011;65232;48.358;2.122;2024-02-04T01:08:00;4.55;;;2.50;;
76403;SDS011;65232;48.358;2.122;2024-02-04T01:08:26;2.83;;;2.00;;
76403;SDS011;65232;48.358;2.122;2024-02-04T01:08:52;3.70;;;2.17;;
76403;SDS011;65232;48.358;2.122;2024-02-04T01:09:17;4.40;;;2.22;;
76403;SDS011;65232;48.358;2.122;2024-02-04T01:09:43;3.60;;;2.03;;
76403;SDS011;65232;48.358;2.122;2024-02-04T01:10:09;3.58;;;2.50;;
76403;SDS011;65232;48.358;2.122;2024-02-04T01:10:35;5.15;;;2.13;;
76403;SDS011;65232;48.358;2.122;2024-02-04T01:11:01;4.57;;;2.03;;
76403;SDS011;65232;48.358;2.122;2024-02-04T01:11:26;4.15;;;2.08;;
76403;SDS011;65232;48.358;2.122;2024-02-04T01:11:54;4.07;;;2.13;;
76403;SDS011;65232;48.358;2.122;2024-02-04T01:12:19;4.97;;;2.80;;
76403;SDS011;65232;48.358;2.122;2024-02-04T01:12:45;5.50;;;2.22;;
76403;SDS011;65232;48.358;2.122;2024-02-04T01:13:10;4.25;;;2.10;;
76403;SDS011;65232;48.358;2.122;2024-02-04T01:13:35;7.65;;;2.17;;
76403;SDS011;65232;48.358;2.122;2024-02-04T01:14:01;5.82;;;2.65;;
76403;SDS011;65232;48.358;2.122;2024-02-04T01:14:26;2.80;;;2.00;;
76403;SDS011;65232;48.358;2.122;2024-02-04T01:14:52;3.55;;;2.10;;
76403;SDS011;65232;48.358;2.122;2024-02-04T01:15:17;4.32;;;1.98;;
76403;SDS011;65232;48.358;2.122;2024-02-04T01:15:42;3.47;;;1.77;;
76403;SDS011;65232;48.358;2.122;2024-02-04T01:16:08;5.40;;;2.40;;
76403;SDS011;65232;48.358;2.122;2024-02-04T01:16:33;4.80;;;2.42;;
76403;SDS011;65232;48.358;2.122;2024-02-04T01:16:59;4.35;;;1.90;;
76403;SDS011;65232;48.358;2.122;2024-02-04T01:17:24;5.22;;;2.08;;
76403;SDS011;65232;48.358;2.122;2024-02-04T01:17:50;5.53;;;2.10;;
76403;SDS011;65232;48.358;2.122;2024-02-04T01:18:17;4.20;;;2.10;;
76403;SDS011;65232;48.358;2.122;2024-02-04T01:18:42;2.65;;;1.75;;
76403;SDS011;65232;48.358;2.122;2024-02-04T01:19:08;5.43;;;2.28;;
76403;SDS011;65232;48.358;2.122;2024-02-04T01:19:33;6.65;;;2.10;;
76403;SDS011;65232;48.358;2.122;2024-02-04T01:19:59;2.90;;;1.70;;
76403;SDS011;65232;48.358;2.122;2024-02-04T01:20:24;4.30;;;2.33;;
76403;SDS011;65232;48.358;2.122;2024-02-04T01:20:50;3.83;;;2.15;;
76403;SDS011;65232;48.358;2.122;2024-02-04T01:21:15;7.30;;;2.13;;
76403;SDS011;65232;48.358;2.122;2024-02-04T01:21:41;3.78;;;2.10;;
76403;SDS011;65232;48.358;2.122;2024-02-04T01:22:06;4.30;;;1.83;;
76403;SDS011;65232;48.358;2.122;2024-02-04T01:22:31;3.50;;;1.98;;
76403;SDS011;65232;48.358;2.122;2024-02-04T01:22:57;3.63;;;1.77;;
76403;SDS011;65232;48.358;2.122;2024-02-04T01:23:22;5.65;;;1.90;;
76403;SDS011;65232;48.358;2.122;2024-02-04T01:23:48;4.82;;;2.10;;
76403;SDS011;65232;48.358;2.122;2024-02-04T01:24:13;4.70;;;2.53;;
76403;SDS011;65232;48.358;2.122;2024-02-04T01:24:39;3.50;;;2.00;;
76403;SDS011;65232;48.358;2.122;2024-02-04T01:25:04;4.38;;;1.63;;
76403;SDS011;65232;48.358;2.122;2024-02-04T01:25:30;4.40;;;2.05;;
76403;SDS011;65232;48.358;2.122;2024-02-04T01:25:55;5.82;;;1.80;;
76403;SDS011;65232;48.358;2.122;2024-02-04T01:26:21;3.58;;;1.88;;
76403;SDS011;65232;48.358;2.122;2024-02-04T01:26:48;5.03;;;1.95;;
76403;SDS011;65232;48.358;2.122;2024-02-04T01:27:13;3.65;;;1.73;;
76403;SDS011;65232;48.358;2.122;2024-02-04T01:27:39;3.60;;;1.55;;
76403;SDS011;65232;48.358;2.122;2024-02-04T01:28:04;3.65;;;1.70;;
76403;SDS011;65232;48.358;2.122;2024-02-04T01:28:30;3.72;;;1.83;;
76403;SDS011;65232;48.358;2.122;2024-02-04T01:28:55;5.50;;;1.73;;
76403;SDS011;65232;48.358;2.122;2024-02-04T01:29:20;4.82;;;1.90;;
76403;SDS011;65232;48.358;2.122;2024-02-04T01:29:46;3.95;;;1.60;;
76403;SDS011;65232;48.358;2.122;2024-02-04T01:30:11;3.30;;;1.60;;
76403;SDS011;65232;48.358;2.122;2024-02-04T01:30:37;4.72;;;1.73;;
76403;SDS011;65232;48.358;2.122;2024-02-04T01:31:02;5.60;;;1.98;;
76403;SDS011;65232;48.358;2.122;2024-02-04T01:31:28;6.15;;;2.10;;
76403;SDS011;65232;48.358;2.122;2024-02-04T01:31:53;3.60;;;1.90;;
76403;SDS011;65232;48.358;2.122;2024-02-04T01:32:19;4.43;;;2.03;;
76403;SDS011;65232;48.358;2.122;2024-02-04T01:32:44;4.35;;;1.75;;
76403;SDS011;65232;48.358;2.122;2024-02-04T01:33:10;7.88;;;1.92;;
76403;SDS011;65232;48.358;2.122;2024-02-04T01:33:36;6.30;;;2.00;;
76403;SDS011;65232;48.358;2.122;2024-02-04T01:34:01;3.50;;;2.10;;
76403;SDS011;65232;48.358;2.122;2024-02-04T01:34:27;2.58;;;1.75;;
76403;SDS011;65232;48.358;2.122;2024-02-04T01:34:52;4.03;;;1.88;;
76403;SDS011;65232;48.358;2.122;2024-02-04T01:35:17;5.70;;;1.90;;
76403;SDS011;65232;48.358;2.122;2024-02-04T01:35:43;5.82;;;1.70;;
76403;SDS011;65232;48.358;2.122;2024-02-04T01:36:08;4.38;;;1.90;;
76403;SDS011;65232;48.358;2.122;2024-02-04T01:36:33;3.65;;;1.90;;
76403;SDS011;65232;48.358;2.122;2024-02-04T01:36:59;4.80;;;1.80;;
76403;SDS011;65232;48.358;2.122;2024-02-04T01:37:25;2.60;;;1.60;;
76403;SDS011;65232;48.358;2.122;2024-02-04T01:37:50;3.88;;;1.45;;
76403;SDS011;65232;48.358;2.122;2024-02-04T01:38:16;2.92;;;1.60;;
76403;SDS011;65232;48.358;2.122;2024-02-04T01:38:41;4.20;;;1.67;;
76403;SDS011;65232;48.358;2.122;2024-02-04T01:39:06;3.38;;;1.70;;
76403;SDS011;65232;48.358;2.122;2024-02-04T01:39:32;4.45;;;1.63;;
76403;SDS011;65232;48.358;2.122;2024-02-04T01:39:58;3.58;;;1.73;;
76403;SDS011;65232;48.358;2.122;2024-02-04T01:40:23;3.55;;;1.75;;
76403;SDS011;65232;48.358;2.122;2024-02-04T01:40:48;5.18;;;1.80;;
76403;SDS011;65232;48.358;2.122;2024-02-04T01:41:17;4.10;;;1.92;;
76403;SDS011;65232;48.358;2.122;2024-02-04T01:41:42;4.90;;;1.73;;
76403;SDS011;65232;48.358;2.122;2024-02-04T01:42:10;3.67;;;1.67;;
76403;SDS011;65232;48.358;2.122;2024-02-04T01:42:35;5.82;;;2.03;;
76403;SDS011;65232;48.358;2.122;2024-02-04T01:43:01;3.88;;;1.67;;
76403;SDS011;65232;48.358;2.122;2024-02-04T01:43:26;4.22;;;1.60;;
76403;SDS011;65232;48.358;2.122;2024-02-04T01:43:51;4.65;;;1.80;;
76403;SDS011;65232;48.358;2.122;2024-02-04T01:44:17;5.63;;;1.60;;
76403;SDS011;65232;48.358;2.122;2024-02-04T01:44:43;3.00;;;1.52;;
76403;SDS011;65232;48.358;2.122;2024-02-04T01:45:09;4.78;;;1.63;;
76403;SDS011;65232;48.358;2.122;2024-02-04T01:45:34;2.58;;;1.60;;
76403;SDS011;65232;48.358;2.122;2024-02-04T01:46:00;3.20;;;1.60;;
76403;SDS011;65232;48.358;2.122;2024-02-04T01:46:25;3.10;;;1.73;;
76403;SDS011;65232;48.358;2.122;2024-02-04T01:46:51;3.35;;;1.65;;
76403;SDS011;65232;48.358;2.122;2024-02-04T01:47:16;4.30;;;2.00;;
76403;SDS011;65232;48.358;2.122;2024-02-04T01:47:42;4.25;;;1.75;;
76403;SDS011;65232;48.358;2.122;2024-02-04T01:48:08;3.20;;;1.90;;
76403;SDS011;65232;48.358;2.122;2024-02-04T01:48:34;3.28;;;1.60;;
76403;SDS011;65232;48.358;2.122;2024-02-04T01:49:00;5.10;;;1.50;;
76403;SDS011;65232;48.358;2.122;2024-02-04T01:49:25;4.22;;;1.75;;
76403;SDS011;65232;48.358;2.122;2024-02-04T01:49:51;3.28;;;1.70;;
76403;SDS011;65232;48.358;2.122;2024-02-04T01:50:16;3.70;;;1.67;;
76403;SDS011;65232;48.358;2.122;2024-02-04T01:50:42;3.72;;;1.70;;
76403;SDS011;65232;48.358;2.122;2024-02-04T01:51:07;3.88;;;1.52;;
76403;SDS011;65232;48.358;2.122;2024-02-04T01:51:33;2.47;;;1.50;;
76403;SDS011;65232;48.358;2.122;2024-02-04T01:51:59;3.47;;;1.83;;
76403;SDS011;65232;48.358;2.122;2024-02-04T01:52:25;3.83;;;1.63;;
76403;SDS011;65232;48.358;2.122;2024-02-04T01:52:51;5.38;;;1.65;;
76403;SDS011;65232;48.358;2.122;2024-02-04T01:53:17;3.30;;;1.60;;
76403;SDS011;65232;48.358;2.122;2024-02-04T01:53:46;3.45;;;1.83;;
76403;SDS011;65232;48.358;2.122;2024-02-04T01:54:12;3.58;;;1.90;;
76403;SDS011;65232;48.358;2.122;2024-02-04T01:54:38;2.20;;;1.50;;
76403;SDS011;65232;48.358;2.122;2024-02-04T01:55:05;3.58;;;1.42;;
76403;SDS011;65232;48.358;2.122;2024-02-04T01:55:31;2.72;;;1.50;;
76403;SDS011;65232;48.358;2.122;2024-02-04T01:55:56;4.20;;;1.58;;
76403;SDS011;65232;48.358;2.122;2024-02-04T01:56:22;2.80;;;1.50;;
76403;SDS011;65232;48.358;2.122;2024-02-04T01:56:49;5.53;;;1.58;;
76403;SDS011;65232;48.358;2.122;2024-02-04T01:57:15;4.15;;;1.42;;
76403;SDS011;65232;48.358;2.122;2024-02-04T01:57:42;5.70;;;1.60;;
76403;SDS011;65232;48.358;2.122;2024-02-04T01:58:08;4.68;;;1.70;;
76403;SDS011;65232;48.358;2.122;2024-02-04T01:58:34;5.22;;;1.50;;
76403;SDS011;65232;48.358;2.122;2024-02-04T01:58:59;4.70;;;1.60;;
76403;SDS011;65232;48.358;2.122;2024-02-04T01:59:25;3.33;;;1.70;;
76403;SDS011;65232;48.358;2.122;2024-02-04T01:59:55;3.05;;;1.48;;
76403;SDS011;65232;48.358;2.122;2024-02-04T02:00:22;4.60;;;1.60;;
76403;SDS011;65232;48.358;2.122;2024-02-04T02:00:48;10.68;;;1.50;;
76403;SDS011;65232;48.358;2.122;2024-02-04T02:01:14;3.85;;;1.73;;
76403;SDS011;65232;48.358;2.122;2024-02-04T02:01:41;3.88;;;1.50;;
76403;SDS011;65232;48.358;2.122;2024-02-04T02:02:08;4.50;;;1.80;;
76403;SDS011;65232;48.358;2.122;2024-02-04T02:02:34;3.60;;;1.30;;
76403;SDS011;65232;48.358;2.122;2024-02-04T02:02:59;3.95;;;1.30;;
76403;SDS011;65232;48.358;2.122;2024-02-04T02:03:26;2.95;;;1.63;;
76403;SDS011;65232;48.358;2.122;2024-02-04T02:03:51;4.13;;;1.20;;
76403;SDS011;65232;48.358;2.122;2024-02-04T02:04:17;4.43;;;1.35;;
76403;SDS011;65232;48.358;2.122;2024-02-04T02:04:42;3.28;;;1.45;;
76403;SDS011;65232;48.358;2.122;2024-02-04T02:05:08;5.00;;;1.55;;
76403;SDS011;65232;48.358;2.122;2024-02-04T02:05:34;3.85;;;1.40;;
76403;SDS011;65232;48.358;2.122;2024-02-04T02:06:00;3.13;;;1.30;;
76403;SDS011;65232;48.358;2.122;2024-02-04T02:06:25;3.85;;;1.52;;
76403;SDS011;65232;48.358;2.122;2024-02-04T02:06:54;3.72;;;1.30;;
76403;SDS011;65232;48.358;2.122;2024-02-04T02:07:20;3.55;;;1.70;;
76403;SDS011;65232;48.358;2.122;2024-02-04T02:08:16;3.13;;;1.20;;
76403;SDS011;65232;48.358;2.122;2024-02-04T02:08:41;3.13;;;1.40;;
76403;SDS011;65232;48.358;2.122;2024-02-04T02:09:07;4.45;;;1.65;;
76403;SDS011;65232;48.358;2.122;2024-02-04T02:09:36;2.63;;;1.20;;
76403;SDS011;65232;48.358;2.122;2024-02-04T02:10:01;3.05;;;1.42;;
76403;SDS011;65232;48.358;2.122;2024-02-04T02:10:26;2.88;;;1.40;;
76403;SDS011;65232;48.358;2.122;2024-02-04T02:11:01;3.40;;;1.55;;
76403;SDS011;65232;48.358;2.122;2024-02-04T02:11:32;4.60;;;1.23;;
76403;SDS011;65232;48.358;2.122;2024-02-04T02:12:11;3.85;;;1.50;;
76403;SDS011;65232;48.358;2.122;2024-02-04T02:13:22;2.55;;;1.35;;
76403;SDS011;65232;48.358;2.122;2024-02-04T02:13:54;3.50;;;1.40;;
76403;SDS011;65232;48.358;2.122;2024-02-04T02:14:26;3.13;;;1.38;;
76403;SDS011;65232;48.358;2.122;2024-02-04T02:15:00;5.03;;;1.73;;
76403;SDS011;65232;48.358;2.122;2024-02-04T02:15:45;5.57;;;1.40;;
76403;SDS011;65232;48.358;2.122;2024-02-04T02:16:15;3.33;;;1.40;;
76403;SDS011;65232;48.358;2.122;2024-02-04T02:16:44;2.65;;;1.50;;
76403;SDS011;65232;48.358;2.122;2024-02-04T02:17:14;2.30;;;1.50;;
76403;SDS011;65232;48.358;2.122;2024-02-04T02:18:14;5.05;;;1.77;;
76403;SDS011;65232;48.358;2.122;2024-02-04T02:18:52;7.13;;;1.80;;
76403;SDS011;65232;48.358;2.122;2024-02-04T02:19:30;6.32;;;1.52;;
76403;SDS011;65232;48.358;2.122;2024-02-04T02:20:12;3.42;;;1.45;;
76403;SDS011;65232;48.358;2.122;2024-02-04T02:22:39;1.70;;;1.17;;
76403;SDS011;65232;48.358;2.122;2024-02-04T02:23:10;2.30;;;1.10;;
76403;SDS011;65232;48.358;2.122;2024-02-04T02:23:48;1.70;;;1.10;;
76403;SDS011;65232;48.358;2.122;2024-02-04T02:24:40;3.95;;;1.80;;
76403;SDS011;65232;48.358;2.122;2024-02-04T02:25:07;3.15;;;1.40;;
76403;SDS011;65232;48.358;2.122;2024-02-04T02:25:33;4.50;;;1.20;;
76403;SDS011;65232;48.358;2.122;2024-02-04T02:26:01;2.30;;;1.25;;
76403;SDS011;65232;48.358;2.122;2024-02-04T02:26:30;3.38;;;1.60;;
76403;SDS011;65232;48.358;2.122;2024-02-04T02:26:56;2.72;;;1.50;;
76403;SDS011;65232;48.358;2.122;2024-02-04T02:27:23;3.47;;;1.80;;
76403;SDS011;65232;48.358;2.122;2024-02-04T02:27:49;3.72;;;1.70;;
76403;SDS011;65232;48.358;2.122;2024-02-04T02:28:15;3.80;;;1.50;;
76403;SDS011;65232;48.358;2.122;2024-02-04T02:28:40;5.32;;;1.70;;
76403;SDS011;65232;48.358;2.122;2024-02-04T02:29:06;4.60;;;1.20;;
76403;SDS011;65232;48.358;2.122;2024-02-04T02:29:33;3.97;;;1.90;;
76403;SDS011;65232;48.358;2.122;2024-02-04T02:29:58;3.72;;;1.50;;
76403;SDS011;65232;48.358;2.122;2024-02-04T02:30:24;2.85;;;1.50;;
76403;SDS011;65232;48.358;2.122;2024-02-04T02:30:49;3.53;;;1.20;;
76403;SDS011;65232;48.358;2.122;2024-02-04T02:31:15;3.53;;;1.50;;
76403;SDS011;65232;48.358;2.122;2024-02-04T02:31:40;4.93;;;1.48;;
76403;SDS011;65232;48.358;2.122;2024-02-04T02:32:07;2.78;;;1.45;;
76403;SDS011;65232;48.358;2.122;2024-02-04T02:32:33;2.40;;;1.45;;
76403;SDS011;65232;48.358;2.122;2024-02-04T02:32:58;3.45;;;1.42;;
76403;SDS011;65232;48.358;2.122;2024-02-04T02:33:25;3.33;;;1.48;;
76403;SDS011;65232;48.358;2.122;2024-02-04T02:33:50;3.70;;;1.55;;
76403;SDS011;65232;48.358;2.122;2024-02-04T02:34:16;5.35;;;1.45;;
76403;SDS011;65232;48.358;2.122;2024-02-04T02:34:41;5.57;;;1.85;;
76403;SDS011;65232;48.358;2.122;2024-02-04T02:35:07;4.72;;;1.95;;
76403;SDS011;65232;48.358;2.122;2024-02-04T02:35:33;3.47;;;1.40;;
76403;SDS011;65232;48.358;2.122;2024-02-04T02:36:00;4.45;;;1.50;;
76403;SDS011;65232;48.358;2.122;2024-02-04T02:36:37;3.22;;;1.70;;
76403;SDS011;65232;48.358;2.122;2024-02-04T02:39:06;4.43;;;1.38;;
76403;SDS011;65232;48.358;2.122;2024-02-04T02:39:38;4.18;;;1.48;;
76403;SDS011;65232;48.358;2.122;2024-02-04T02:40:19;3.65;;;1.73;;
76403;SDS011;65232;48.358;2.122;2024-02-04T02:40:49;2.92;;;1.60;;
76403;SDS011;65232;48.358;2.122;2024-02-04T02:41:27;4.30;;;1.40;;
76403;SDS011;65232;48.358;2.122;2024-02-04T02:41:56;3.17;;;1.45;;
76403;SDS011;65232;48.358;2.122;2024-02-04T02:42:24;4.80;;;1.58;;
76403;SDS011;65232;48.358;2.122;2024-02-04T02:42:52;2.33;;;1.45;;
76403;SDS011;65232;48.358;2.122;2024-02-04T02:43:18;3.75;;;1.42;;
76403;SDS011;65232;48.358;2.122;2024-02-04T02:43:44;4.18;;;1.90;;
76403;SDS011;65232;48.358;2.122;2024-02-04T02:44:11;6.47;;;1.65;;
76403;SDS011;65232;48.358;2.122;2024-02-04T02:44:38;5.68;;;1.80;;